Time;durP1;ratioP1;P1;durP2;ratioP2;P2;SDS_P1;SDS_P2;PMS_P1;PMS_P2;Temp;Humidity;BMP_temperature;BMP_pressure;BME280_temperature;BME280_humidity;BME280_pressure;Samples;Min_cycle;Max_cycle;Signal;HPM_P1;HPM_P2
2023/06/02 00:00:45;;;;;;;6.80;1.70;;;;;;;8.32;79.66;99861.31;105525;1256;59287;-68
2023/06/02 00:03:43;;;;;;;9.70;2.00;;;;;;;8.29;79.96;99859.73;105472;1257;59425;-66
2023/06/02 00:06:33;;;;;;;7.10;1.70;;;;;;;8.27;80.15;99854.75;105804;1260;72779;-69
2023/06/02 00:09:23;;;;;;;7.00;1.60;;;;;;;8.26;80.33;99856.64;105763;1256;68453;-68
2023/06/02 00:12:11;;;;;;;7.40;1.80;;;;;;;8.24;80.42;99849.66;105015;1261;1002842;-67
2023/06/02 00:15:00;;;;;;;9.00;1.70;;;;;;;8.25;80.72;99850.86;105567;1264;59797;-67
2023/06/02 00:17:50;;;;;;;7.00;1.60;;;;;;;8.23;80.05;99849.03;105605;1256;59327;-66
2023/06/02 00:20:39;;;;;;;6.70;1.80;;;;;;;8.24;79.96;99850.06;105650;1256;72573;-66
2023/06/02 00:23:29;;;;;;;8.80;1.90;;;;;;;8.22;80.14;99853.67;105667;1261;67120;-65
2023/06/02 00:26:17;;;;;;;6.50;1.40;;;;;;;8.24;80.71;99853.92;105516;1256;72813;-67
2023/06/02 00:29:07;;;;;;;6.30;1.40;;;;;;;8.22;80.06;99854.77;105644;1256;59336;-68
2023/06/02 00:31:55;;;;;;;8.50;1.70;;;;;;;8.22;79.78;99858.48;105581;1256;59443;-67
2023/06/02 00:34:44;;;;;;;7.90;1.60;;;;;;;8.21;80.05;99858.04;105489;1261;72674;-66
2023/06/02 00:37:32;;;;;;;8.10;2.50;;;;;;;8.19;80.36;99852.86;105009;1261;1004018;-67
2023/06/02 00:40:22;;;;;;;9.20;1.90;;;;;;;8.17;80.97;99851.91;105737;1257;74099;-66
2023/06/02 00:43:11;;;;;;;9.90;2.00;;;;;;;8.15;81.52;99849.77;105650;1258;59283;-67
2023/06/02 00:46:00;;;;;;;6.60;1.70;;;;;;;8.13;82.10;99846.70;105910;1256;59224;-68
2023/06/02 00:48:52;;;;;;;6.90;1.90;;;;;;;8.12;82.06;99845.54;105983;1253;73823;-65
2023/06/02 00:51:43;;;;;;;7.70;2.10;;;;;;;8.11;82.32;99848.46;105805;1255;67306;-65
2023/06/02 00:54:31;;;;;;;6.70;1.70;;;;;;;8.08;82.25;99852.23;105604;1253;72994;-65
2023/06/02 00:57:21;;;;;;;7.80;1.30;;;;;;;8.05;83.11;99848.53;105631;1260;60188;-63
2023/06/02 01:00:11;;;;;;;8.90;1.80;;;;;;;8.04;83.11;99847.71;105879;1255;59867;-67
2023/06/02 01:03:02;;;;;;;6.80;1.80;;;;;;;8.06;83.17;99851.16;105660;1257;73791;-68
2023/06/02 01:05:55;;;;;;;6.90;1.60;;;;;;;8.07;83.40;99850.15;105647;1258;68302;-68
2023/06/02 01:08:45;;;;;;;8.00;1.70;;;;;;;8.06;83.45;99848.66;105579;1253;74583;-66
2023/06/02 01:11:34;;;;;;;7.50;1.60;;;;;;;8.06;83.72;99839.10;105741;1257;59961;-67
2023/06/02 01:14:24;;;;;;;8.10;1.80;;;;;;;8.08;83.91;99840.23;105856;1255;59788;-67
2023/06/02 01:17:13;;;;;;;6.50;1.60;;;;;;;8.10;83.80;99834.02;105679;1253;72746;-66
2023/06/02 01:20:10;;;;;;;9.20;2.10;;;;;;;8.12;83.94;99836.35;105865;1253;68457;-66
2023/06/02 01:23:23;;;;;;;6.80;1.70;;;;;;;8.11;83.71;99839.63;105785;1257;73561;-64
2023/06/02 01:26:13;;;;;;;8.00;1.60;;;;;;;8.11;83.88;99850.95;105663;1257;60108;-66
2023/06/02 01:29:04;;;;;;;16.10;1.80;;;;;;;8.12;83.63;99855.47;105685;1253;60806;-68
2023/06/02 01:31:57;;;;;;;6.60;1.80;;;;;;;8.14;83.55;99856.73;105598;1252;72661;-67
2023/06/02 01:34:56;;;;;;;7.10;1.70;;;;;;;8.16;83.56;99857.48;105246;1256;1002974;-66
2023/06/02 01:37:54;;;;;;;7.10;1.60;;;;;;;8.16;83.45;99851.98;105820;1253;72166;-67
2023/06/02 01:40:43;;;;;;;11.10;1.80;;;;;;;8.15;82.96;99854.91;105875;1253;59594;-66
2023/06/02 01:43:34;;;;;;;7.90;1.70;;;;;;;8.15;82.57;99861.82;105569;1253;61124;-67
2023/06/02 01:46:26;;;;;;;13.90;1.80;;;;;;;8.15;82.78;99860.86;105694;1254;73827;-67
2023/06/02 01:49:16;;;;;;;9.20;1.80;;;;;;;8.15;82.45;99861.58;105947;1256;69495;-66
2023/06/02 01:52:05;;;;;;;7.00;1.80;;;;;;;8.16;82.70;99866.11;106057;1253;73290;-68
2023/06/02 01:54:53;;;;;;;9.30;1.80;;;;;;;8.16;82.36;99856.77;105898;1253;59237;-66
2023/06/02 01:57:42;;;;;;;7.70;1.70;;;;;;;8.16;81.96;99859.23;105710;1257;60814;-66
2023/06/02 02:00:31;;;;;;;6.10;1.50;;;;;;;8.15;81.40;99867.77;105666;1253;73781;-66
2023/06/02 02:03:19;;;;;;;8.40;1.90;;;;;;;8.14;80.90;99877.57;105816;1253;68509;-67
2023/06/02 02:06:07;;;;;;;7.60;1.60;;;;;;;8.14;81.08;99890.84;105745;1253;73441;-66
2023/06/02 02:08:57;;;;;;;9.20;1.80;;;;;;;8.14;81.22;99896.69;105754;1260;60923;-65
2023/06/02 02:11:45;;;;;;;8.00;1.70;;;;;;;8.13;81.04;99894.23;105889;1257;59311;-66
2023/06/02 02:14:33;;;;;;;8.00;1.70;;;;;;;8.13;80.87;99897.64;105931;1253;73800;-65
2023/06/02 02:17:25;;;;;;;7.20;1.50;;;;;;;8.11;80.52;99895.63;105776;1257;68476;-65
2023/06/02 02:20:18;;;;;;;7.20;1.70;;;;;;;8.12;80.90;99898.80;105859;1258;71903;-65
2023/06/02 02:23:07;;;;;;;8.00;1.70;;;;;;;8.10;80.61;99894.65;105794;1258;61140;-63
2023/06/02 02:25:57;;;;;;;8.10;1.50;;;;;;;8.06;80.23;99903.08;105476;1253;60748;-64
2023/06/02 02:28:46;;;;;;;5.50;1.60;;;;;;;8.04;80.32;99902.31;105637;1254;73513;-65
2023/06/02 02:31:35;;;;;;;7.20;1.40;;;;;;;8.03;79.89;99898.70;105496;1257;68565;-64
2023/06/02 02:34:25;;;;;;;5.90;1.60;;;;;;;8.00;79.57;99899.55;105904;1257;73341;-64
2023/06/02 02:37:14;;;;;;;7.50;1.90;;;;;;;7.99;79.46;99906.70;105859;1253;59562;-66
2023/06/02 02:40:05;;;;;;;6.10;1.50;;;;;;;8.01;79.34;99908.70;105960;1257;60812;-67
2023/06/02 02:42:54;;;;;;;6.10;1.60;;;;;;;8.01;79.03;99906.20;106000;1253;73546;-67
2023/06/02 02:45:43;;;;;;;6.80;1.80;;;;;;;8.03;78.80;99913.20;105971;1257;68611;-67
2023/06/02 02:48:33;;;;;;;6.80;1.80;;;;;;;8.03;78.32;99918.52;105943;1253;70794;-67
2023/06/02 02:51:23;;;;;;;6.60;1.40;;;;;;;8.04;78.35;99923.87;105912;1259;59595;-67
2023/06/02 02:54:12;;;;;;;7.50;1.70;;;;;;;8.06;77.90;99918.30;105107;1253;1002998;-68
2023/06/02 02:57:00;;;;;;;7.50;1.70;;;;;;;8.07;77.58;99916.77;105824;1253;72790;-66
2023/06/02 02:59:49;;;;;;;6.60;1.80;;;;;;;8.08;76.50;99919.89;105573;1253;67974;-64
2023/06/02 03:02:38;;;;;;;6.50;2.00;;;;;;;8.07;75.69;99917.66;105768;1257;73270;-68
2023/06/02 03:05:27;;;;;;;6.40;1.80;;;;;;;8.06;75.61;99910.48;105897;1257;59250;-68
2023/06/02 03:08:17;;;;;;;6.20;1.80;;;;;;;8.04;74.65;99914.55;105912;1256;59402;-68
2023/06/02 03:11:07;;;;;;;5.70;1.40;;;;;;;8.01;74.41;99912.42;105571;1253;73691;-69
2023/06/02 03:13:56;;;;;;;6.10;1.80;;;;;;;8.00;74.22;99917.58;105887;1257;68679;-68
2023/06/02 03:16:45;;;;;;;10.20;1.90;;;;;;;7.98;73.83;99918.79;105863;1253;73081;-67
2023/06/02 03:19:35;;;;;;;8.00;1.60;;;;;;;7.96;73.59;99919.14;105320;1264;59636;-69
2023/06/02 03:22:23;;;;;;;5.50;1.70;;;;;;;7.93;73.73;99929.38;105576;1258;61880;-68
2023/06/02 03:25:12;;;;;;;5.90;1.50;;;;;;;7.93;74.01;99928.85;105406;1258;72893;-66
2023/06/02 03:28:02;;;;;;;6.00;1.40;;;;;;;7.94;74.14;99931.59;105625;1259;68810;-68
2023/06/02 03:30:51;;;;;;;7.00;1.50;;;;;;;7.95;74.04;99936.56;105594;1264;72089;-66
2023/06/02 03:33:40;;;;;;;8.10;1.80;;;;;;;7.97;73.69;99939.75;105556;1263;59704;-66
2023/06/02 03:36:29;;;;;;;6.00;1.60;;;;;;;8.00;73.55;99939.18;105534;1262;60938;-68
2023/06/02 03:39:18;;;;;;;7.30;1.50;;;;;;;8.00;73.19;99938.46;105566;1263;71481;-66
2023/06/02 03:42:07;;;;;;;7.50;1.60;;;;;;;7.98;72.77;99941.05;105521;1262;68479;-67
2023/06/02 03:44:56;;;;;;;10.20;1.90;;;;;;;7.99;72.97;99944.86;105636;1257;72927;-65
2023/06/02 03:47:44;;;;;;;7.80;1.60;;;;;;;8.05;73.26;99951.41;105377;1263;59293;-68
2023/06/02 03:50:34;;;;;;;6.90;1.50;;;;;;;8.09;72.95;99954.65;105794;1257;59632;-69
2023/06/02 03:53:24;;;;;;;8.10;1.80;;;;;;;8.14;72.75;99959.20;106017;1254;73835;-67
2023/06/02 03:56:12;;;;;;;8.40;1.90;;;;;;;8.20;72.22;99958.11;105868;1257;69566;-67
2023/06/02 03:59:02;;;;;;;7.50;1.80;;;;;;;8.26;72.27;99961.94;105891;1257;73247;-68
2023/06/02 04:01:50;;;;;;;5.80;1.80;;;;;;;8.34;71.83;99963.88;106315;1253;59559;-66
2023/06/02 04:04:41;;;;;;;6.50;1.50;;;;;;;8.40;71.35;99964.48;105757;1259;61222;-70
2023/06/02 04:07:30;;;;;;;6.10;1.30;;;;;;;8.45;71.06;99963.15;105980;1253;71612;-70
2023/06/02 04:10:19;;;;;;;6.10;1.50;;;;;;;8.51;70.62;99968.19;105707;1258;69289;-67
2023/06/02 04:13:07;;;;;;;7.00;1.60;;;;;;;8.59;70.23;99965.84;105665;1261;73300;-67
2023/06/02 04:15:56;;;;;;;6.80;1.70;;;;;;;8.70;69.77;99974.63;106216;1253;59246;-72
2023/06/02 04:18:45;;;;;;;6.50;1.50;;;;;;;8.82;69.22;99981.17;105593;1253;59313;-71
2023/06/02 04:21:33;;;;;;;7.10;1.70;;;;;;;8.94;68.46;99984.27;106100;1253;71621;-68
2023/06/02 04:24:22;;;;;;;5.10;1.40;;;;;;;8.98;67.42;99985.94;105673;1261;69510;-72
2023/06/02 04:27:11;;;;;;;5.40;1.40;;;;;;;8.98;67.35;99991.19;105796;1253;72396;-66
2023/06/02 04:30:01;;;;;;;7.70;1.60;;;;;;;8.99;67.40;99992.23;105879;1260;59790;-67
2023/06/02 04:32:51;;;;;;;6.90;2.10;;;;;;;9.07;67.47;99992.52;106044;1258;59818;-69
2023/06/02 04:35:41;;;;;;;8.50;1.60;;;;;;;9.14;66.68;99995.73;106672;1253;73193;-72
2023/06/02 04:38:29;;;;;;;5.90;1.60;;;;;;;9.15;66.01;99996.19;106244;1253;66286;-70
2023/06/02 04:41:18;;;;;;;6.70;1.50;;;;;;;9.42;64.32;100000.77;105942;1259;72927;-69
2023/06/02 04:44:09;;;;;;;6.30;1.50;;;;;;;9.70;63.68;99999.63;105553;1254;59235;-72
2023/06/02 04:46:58;;;;;;;7.70;1.70;;;;;;;10.32;60.93;100002.15;105590;1254;60747;-68
2023/06/02 04:49:47;;;;;;;6.60;1.60;;;;;;;10.93;58.00;99998.44;105923;1252;72832;-71
2023/06/02 04:52:39;;;;;;;6.60;1.60;;;;;;;11.30;55.90;99998.67;106018;1256;68224;-71
2023/06/02 04:55:28;;;;;;;8.50;1.80;;;;;;;11.71;54.72;100001.33;105798;1256;71633;-68
2023/06/02 04:58:17;;;;;;;7.50;2.00;;;;;;;12.06;53.40;100002.69;105990;1257;59471;-68
2023/06/02 05:01:05;;;;;;;6.60;1.60;;;;;;;12.33;51.07;100004.18;105801;1254;60648;-69
2023/06/02 05:03:54;;;;;;;7.60;1.60;;;;;;;12.71;48.96;100001.02;105748;1254;70648;-68
2023/06/02 05:06:43;;;;;;;7.30;1.60;;;;;;;13.02;47.85;100001.85;105651;1254;67312;-70
2023/06/02 05:09:32;;;;;;;5.80;1.70;;;;;;;13.38;46.80;100000.16;105982;1261;71595;-71
2023/06/02 05:12:20;;;;;;;9.10;1.40;;;;;;;13.82;45.75;100004.16;105779;1259;59214;-71
2023/06/02 05:15:09;;;;;;;5.60;1.40;;;;;;;14.40;44.90;100008.98;106138;1262;60104;-72
2023/06/02 05:17:58;;;;;;;5.30;1.40;;;;;;;15.13;43.21;100008.83;105948;1253;72841;-73
2023/06/02 05:20:51;;;;;;;6.50;1.50;;;;;;;15.79;42.17;100016.64;106314;1257;67626;-73
2023/06/02 05:23:39;;;;;;;7.70;1.40;;;;;;;16.53;40.48;100015.23;105822;1253;71428;-71
2023/06/02 05:26:27;;;;;;;5.60;1.50;;;;;;;17.06;38.35;100014.91;105484;1257;59318;-73
2023/06/02 05:29:15;;;;;;;7.90;1.50;;;;;;;17.57;36.74;100021.33;105621;1260;223946;-70
2023/06/02 05:32:07;;;;;;;5.50;1.10;;;;;;;18.07;35.75;100019.65;105474;1265;72439;-73
2023/06/02 05:34:56;;;;;;;5.10;1.20;;;;;;;18.96;34.84;100020.40;105782;1263;65840;-74
2023/06/02 05:37:45;;;;;;;5.70;1.30;;;;;;;19.68;32.74;100022.21;105846;1257;71475;-73
2023/06/02 05:40:35;;;;;;;6.10;1.30;;;;;;;20.27;30.87;100033.73;106304;1261;59220;-71
2023/06/02 05:43:23;;;;;;;7.00;1.30;;;;;;;20.45;30.01;100036.30;106352;1257;59995;-71
2023/06/02 05:46:12;;;;;;;5.20;1.20;;;;;;;20.61;29.08;100037.17;106100;1259;72447;-74
2023/06/02 05:49:00;;;;;;;5.90;1.30;;;;;;;20.94;28.75;100037.52;105811;1259;66562;-73
2023/06/02 05:51:49;;;;;;;6.30;1.10;;;;;;;21.23;28.04;100039.05;105612;1259;72735;-73
2023/06/02 05:54:38;;;;;;;5.60;1.20;;;;;;;21.23;26.79;100035.85;105524;1262;59276;-70
2023/06/02 05:57:27;;;;;;;5.00;1.10;;;;;;;21.21;26.26;100040.56;105538;1259;59424;-69
2023/06/02 06:00:16;;;;;;;6.60;1.10;;;;;;;21.51;26.60;100041.62;105498;1258;72541;-70
2023/06/02 06:03:05;;;;;;;4.60;0.90;;;;;;;21.46;26.21;100037.83;105404;1259;65802;-68
2023/06/02 06:05:55;;;;;;;5.50;1.10;;;;;;;21.53;25.95;100039.50;105900;1253;74231;-73
2023/06/02 06:08:43;;;;;;;5.60;1.00;;;;;;;21.85;25.91;100039.54;105719;1258;59669;-73
2023/06/02 06:11:33;;;;;;;5.40;1.10;;;;;;;22.58;25.74;100045.60;105746;1258;59255;-71
2023/06/02 06:14:21;;;;;;;5.40;1.10;;;;;;;23.06;24.92;100047.40;105778;1253;71000;-72
2023/06/02 06:17:09;;;;;;;4.50;0.80;;;;;;;23.48;24.22;100056.60;105860;1259;69685;-73
2023/06/02 06:19:58;;;;;;;4.80;0.90;;;;;;;23.63;23.78;100056.89;105884;1259;72951;-72
2023/06/02 06:22:46;;;;;;;6.60;1.30;;;;;;;23.78;23.13;100057.18;105813;1257;59232;-73
2023/06/02 06:25:39;;;;;;;6.20;1.00;;;;;;;24.09;22.83;100049.54;105701;1258;59247;-72
2023/06/02 06:28:27;;;;;;;5.50;0.80;;;;;;;24.26;22.39;100061.21;105859;1258;71970;-72
2023/06/02 06:31:19;;;;;;;4.20;0.90;;;;;;;24.13;22.21;100062.96;105793;1253;66705;-73
2023/06/02 06:34:08;;;;;;;5.60;1.00;;;;;;;24.16;22.35;100065.31;105842;1253;71422;-73
2023/06/02 06:36:56;;;;;;;5.90;1.20;;;;;;;24.41;22.70;100063.88;105759;1259;59152;-73
2023/06/02 06:39:46;;;;;;;5.20;1.10;;;;;;;24.45;22.28;100070.58;106021;1253;59608;-70
2023/06/02 06:42:34;;;;;;;4.30;0.90;;;;;;;24.70;22.51;100076.30;105685;1258;72477;-71
2023/06/02 06:45:29;;;;;;;4.40;0.90;;;;;;;24.49;22.58;100079.61;105688;1259;67850;-72
2023/06/02 06:48:18;;;;;;;5.80;1.00;;;;;;;24.44;22.16;100086.63;105652;1253;71447;-72
2023/06/02 06:51:07;;;;;;;4.40;0.90;;;;;;;24.44;21.88;100093.88;105600;1260;59244;-72
2023/06/02 06:53:55;;;;;;;4.90;1.00;;;;;;;24.67;22.43;100093.00;106333;1253;59758;-71
2023/06/02 06:56:45;;;;;;;5.80;1.10;;;;;;;24.89;22.78;100104.36;105966;1258;70682;-73
2023/06/02 06:59:34;;;;;;;5.50;1.00;;;;;;;25.16;22.67;100107.00;105798;1253;66502;-72
2023/06/02 07:02:22;;;;;;;6.00;1.30;;;;;;;25.73;22.13;100104.15;105629;1257;72796;-69
2023/06/02 07:05:10;;;;;;;4.40;0.90;;;;;;;26.12;21.33;100112.59;105767;1258;59169;-71
2023/06/02 07:07:58;;;;;;;4.80;0.70;;;;;;;26.30;20.69;100113.77;105584;1259;60610;-69
2023/06/02 07:10:49;;;;;;;6.30;1.80;;;;;;;26.31;20.92;100116.75;105482;1258;71215;-69
2023/06/02 07:13:38;;;;;;;6.90;1.10;;;;;;;26.53;21.26;100119.71;105570;1261;68536;-68
2023/06/02 07:16:27;;;;;;;5.10;1.00;;;;;;;26.50;21.05;100122.88;105717;1259;72438;-70
2023/06/02 07:19:15;;;;;;;6.00;1.30;;;;;;;26.42;21.16;100126.83;105545;1259;59321;-70
2023/06/02 07:22:04;;;;;;;5.40;0.90;;;;;;;26.44;20.86;100126.77;105300;1259;62004;-71
2023/06/02 07:24:52;;;;;;;4.10;0.80;;;;;;;26.57;20.99;100127.02;105461;1259;72245;-71
2023/06/02 07:27:40;;;;;;;5.30;1.10;;;;;;;26.63;20.78;100127.57;105487;1263;69236;-71
2023/06/02 07:30:29;;;;;;;6.10;0.90;;;;;;;26.89;20.51;100131.34;105610;1259;72927;-72
2023/06/02 07:33:17;;;;;;;5.70;1.10;;;;;;;26.80;19.32;100132.98;105135;1259;59424;-71
2023/06/02 07:36:05;;;;;;;5.10;0.80;;;;;;;26.41;19.81;100145.05;105452;1264;59345;-71
2023/06/02 07:38:54;;;;;;;5.10;0.90;;;;;;;26.39;20.44;100143.59;105667;1259;71612;-69
2023/06/02 07:41:42;;;;;;;4.50;1.10;;;;;;;26.80;20.68;100142.67;105515;1260;68470;-68
2023/06/02 07:44:30;;;;;;;3.90;0.80;;;;;;;26.78;19.61;100141.86;105598;1256;72890;-73
2023/06/02 07:47:18;;;;;;;4.90;0.80;;;;;;;27.01;19.42;100144.66;105566;1256;59459;-73
2023/06/02 07:50:06;;;;;;;5.50;1.00;;;;;;;27.16;19.75;100156.42;105528;1261;59304;-70
2023/06/02 07:52:55;;;;;;;4.60;0.80;;;;;;;26.64;20.03;100152.96;105597;1257;70984;-68
2023/06/02 07:55:45;;;;;;;4.40;0.90;;;;;;;26.61;20.37;100157.98;105495;1257;66767;-73
2023/06/02 07:58:33;;;;;;;4.80;0.70;;;;;;;27.23;20.69;100151.27;105445;1257;74815;-74
2023/06/02 08:01:21;;;;;;;4.20;0.80;;;;;;;27.41;20.38;100161.09;105584;1256;59762;-70
2023/06/02 08:04:10;;;;;;;4.40;0.80;;;;;;;27.37;20.85;100155.67;105922;1253;60355;-73
2023/06/02 08:06:58;;;;;;;4.80;0.90;;;;;;;27.60;20.64;100161.00;105701;1253;74114;-70
2023/06/02 08:09:46;;;;;;;5.10;0.90;;;;;;;27.73;20.59;100168.09;105797;1253;68415;-70
2023/06/02 08:12:35;;;;;;;6.60;1.00;;;;;;;27.81;20.15;100171.54;105839;1263;71342;-73
2023/06/02 08:15:24;;;;;;;5.10;1.00;;;;;;;27.74;19.90;100174.89;105800;1258;59368;-71
2023/06/02 08:18:14;;;;;;;3.70;0.80;;;;;;;27.35;20.55;100182.38;105710;1259;59372;-72
2023/06/02 08:21:06;;;;;;;5.40;0.90;;;;;;;27.12;21.12;100186.26;105804;1253;70979;-73
2023/06/02 08:23:54;;;;;;;4.50;0.80;;;;;;;27.13;21.48;100173.55;106022;1253;68246;-73
2023/06/02 08:26:44;;;;;;;5.00;1.00;;;;;;;27.21;21.19;100185.83;105795;1253;72812;-72
2023/06/02 08:29:33;;;;;;;4.80;0.90;;;;;;;26.91;21.24;100182.35;105918;1259;59208;-71
2023/06/02 08:32:22;;;;;;;6.00;0.90;;;;;;;27.11;21.52;100187.83;105554;1253;61734;-72
2023/06/02 08:35:10;;;;;;;6.00;0.90;;;;;;;27.25;21.15;100194.58;105736;1253;71950;-70
2023/06/02 08:38:02;;;;;;;5.90;1.00;;;;;;;27.12;21.13;100195.89;106022;1253;67608;-71
2023/06/02 08:40:50;;;;;;;4.80;0.80;;;;;;;27.21;21.21;100191.12;105860;1259;73954;-70
2023/06/02 08:43:40;;;;;;;5.40;0.90;;;;;;;26.74;21.39;100201.94;106381;1258;59186;-74
2023/06/02 08:46:30;;;;;;;5.20;1.10;;;;;;;26.86;21.82;100197.59;106225;1258;60439;-72
2023/06/02 08:49:21;;;;;;;4.70;0.90;;;;;;;26.84;21.63;100203.54;106179;1260;70667;-70
2023/06/02 08:52:14;;;;;;;4.60;1.00;;;;;;;26.81;21.45;100198.69;106490;1256;67883;-71
2023/06/02 08:55:04;;;;;;;6.40;1.20;;;;;;;26.99;21.21;100204.66;106047;1256;73535;-74
2023/06/02 08:57:54;;;;;;;4.90;0.80;;;;;;;27.04;20.57;100200.84;105778;1261;59568;-75
2023/06/02 09:00:42;;;;;;;5.40;0.90;;;;;;;27.17;20.67;100213.95;105991;1260;60891;-68
2023/06/02 09:03:30;;;;;;;5.50;0.90;;;;;;;26.75;21.01;100214.12;105654;1259;71955;-71
2023/06/02 09:06:34;;;;;;;6.00;0.90;;;;;;;26.63;20.99;100216.61;105850;1259;67905;-71
2023/06/02 09:09:42;;;;;;;5.00;1.00;;;;;;;26.94;21.00;100224.70;105569;1259;72635;-70
2023/06/02 09:12:47;;;;;;;4.70;0.90;;;;;;;26.84;20.51;100230.20;105592;1257;59438;-71
2023/06/02 09:16:03;;;;;;;5.70;0.90;;;;;;;26.91;20.67;100231.54;105757;1260;60330;-70
2023/06/02 09:19:00;;;;;;;5.80;0.70;;;;;;;26.84;21.13;100234.27;105897;1253;70662;-71
2023/06/02 09:21:47;;;;;;;5.20;0.90;;;;;;;27.08;21.37;100236.84;105863;1257;67045;-73
2023/06/02 09:24:36;;;;;;;4.10;0.70;;;;;;;27.30;20.90;100239.07;105762;1254;71748;-69
2023/06/02 09:27:25;;;;;;;5.00;0.80;;;;;;;27.20;19.78;100239.34;105769;1253;59260;-70
2023/06/02 09:30:14;;;;;;;5.40;1.00;;;;;;;26.96;20.10;100245.52;105826;1260;59291;-71
2023/06/02 09:33:11;;;;;;;4.90;0.80;;;;;;;26.88;20.39;100244.30;105791;1253;71037;-69
2023/06/02 09:35:59;;;;;;;5.30;0.80;;;;;;;26.50;19.95;100251.29;106062;1256;68496;-71
2023/06/02 09:38:48;;;;;;;5.40;0.90;;;;;;;26.40;20.42;100261.52;105990;1253;73260;-70
2023/06/02 09:41:40;;;;;;;5.80;0.90;;;;;;;26.13;20.77;100259.64;106158;1253;59260;-69
2023/06/02 09:44:29;;;;;;;4.60;0.80;;;;;;;25.96;20.69;100265.81;105616;1253;59312;-69
2023/06/02 09:47:20;;;;;;;4.90;0.80;;;;;;;25.89;20.85;100266.89;106347;1253;72190;-70
2023/06/02 09:50:30;;;;;;;4.50;0.80;;;;;;;25.75;20.95;100266.21;106193;1256;69226;-71
2023/06/02 09:53:19;;;;;;;4.90;0.90;;;;;;;26.03;21.22;100267.06;105941;1258;73654;-72
2023/06/02 09:56:07;;;;;;;5.30;1.00;;;;;;;26.19;21.46;100266.50;105760;1261;59256;-72
2023/06/02 09:58:56;;;;;;;5.90;0.80;;;;;;;26.28;21.04;100270.05;106154;1260;60170;-71
2023/06/02 10:01:45;;;;;;;4.30;0.80;;;;;;;26.48;20.55;100276.98;105625;1264;72267;-74
2023/06/02 10:04:33;;;;;;;5.60;1.10;;;;;;;26.40;20.98;100275.27;105559;1263;66597;-71
2023/06/02 10:07:30;;;;;;;4.40;0.90;;;;;;;26.36;20.99;100274.63;105613;1257;72605;-73
2023/06/02 10:10:24;;;;;;;6.50;1.00;;;;;;;26.67;20.97;100271.29;105794;1259;59285;-71
2023/06/02 10:14:00;;;;;;;5.70;0.90;;;;;;;27.01;20.84;100271.19;105956;1255;59894;-71
2023/06/02 10:17:00;;;;;;;5.00;0.80;;;;;;;27.37;20.66;100280.88;106064;1260;71214;-74
2023/06/02 10:20:23;;;;;;;4.70;0.80;;;;;;;26.72;20.66;100287.67;105837;1259;67935;-71
2023/06/02 10:23:32;;;;;;;4.30;0.80;;;;;;;26.57;20.45;100297.72;105703;1258;72716;-74
2023/06/02 10:26:48;;;;;;;3.60;0.70;;;;;;;26.68;19.75;100300.05;105588;1259;59144;-72
2023/06/02 10:29:38;;;;;;;4.80;0.90;;;;;;;26.80;20.46;100298.31;105747;1259;60614;-70
2023/06/02 10:32:41;;;;;;;5.90;1.00;;;;;;;27.26;20.37;100289.49;105727;1260;71573;-72
2023/06/02 10:35:59;;;;;;;5.60;0.90;;;;;;;27.47;20.75;100289.00;106061;1259;69667;-74
2023/06/02 10:38:48;;;;;;;5.20;1.00;;;;;;;27.33;20.45;100289.02;105986;1258;72007;-73
2023/06/02 10:42:08;;;;;;;3.90;0.90;;;;;;;27.48;20.54;100293.45;105698;1258;59845;-73
2023/06/02 10:45:20;;;;;;;6.40;0.90;;;;;;;27.82;20.03;100294.21;106268;1257;59700;-73
2023/06/02 10:48:37;;;;;;;5.50;0.90;;;;;;;28.32;19.98;100293.36;105988;1255;71484;-72
2023/06/02 10:52:05;;;;;;;4.90;0.90;;;;;;;28.41;19.62;100299.19;106254;1257;67046;-72
2023/06/02 10:55:12;;;;;;;7.50;1.10;;;;;;;28.48;19.63;100294.53;106003;1259;72464;-73
2023/06/02 10:58:03;;;;;;;4.50;0.80;;;;;;;27.75;20.48;100296.89;106247;1257;59280;-70
2023/06/02 11:00:53;;;;;;;5.00;0.80;;;;;;;26.79;21.01;100303.75;105976;1253;59289;-72
2023/06/02 11:03:42;;;;;;;4.30;0.80;;;;;;;26.76;21.18;100304.38;105975;1260;72725;-73
2023/06/02 11:06:30;;;;;;;6.10;1.10;;;;;;;26.45;21.82;100307.69;105911;1253;67781;-75
2023/06/02 11:09:42;;;;;;;7.00;1.00;;;;;;;24.91;22.69;100309.62;106123;1253;71341;-72
2023/06/02 11:12:50;;;;;;;4.10;0.80;;;;;;;24.18;23.98;100312.77;105749;1256;59331;-73
2023/06/02 11:15:38;;;;;;;6.40;1.00;;;;;;;23.13;25.03;100313.23;106306;1259;59694;-72
2023/06/02 11:18:30;;;;;;;6.90;1.10;;;;;;;22.16;25.95;100325.01;105803;1259;72252;-72
2023/06/02 11:21:24;;;;;;;7.90;1.10;;;;;;;21.96;26.46;100325.98;105964;1257;67776;-72
2023/06/02 11:24:21;;;;;;;6.30;1.00;;;;;;;21.75;26.94;100318.98;105934;1267;73119;-75
2023/06/02 11:27:12;;;;;;;5.80;1.10;;;;;;;21.88;27.10;100325.21;106000;1253;60693;-71
2023/06/02 11:30:16;;;;;;;4.40;1.10;;;;;;;21.91;26.74;100324.91;106391;1254;60650;-74
2023/06/02 11:33:05;;;;;;;4.90;1.00;;;;;;;21.65;27.62;100327.92;106092;1258;71147;-69
2023/06/02 11:35:58;;;;;;;5.20;1.10;;;;;;;21.04;27.96;100337.23;105977;1253;66762;-73
2023/06/02 11:38:46;;;;;;;4.40;0.90;;;;;;;20.74;28.32;100330.95;105618;1257;72561;-72
2023/06/02 11:41:35;;;;;;;7.60;1.00;;;;;;;20.28;28.67;100332.06;106200;1259;59980;-73
2023/06/02 11:44:24;;;;;;;4.80;1.10;;;;;;;19.83;29.56;100336.41;105847;1266;59274;-71
2023/06/02 11:47:17;;;;;;;6.00;0.80;;;;;;;19.29;30.15;100339.11;106016;1253;72084;-72
2023/06/02 11:50:05;;;;;;;4.90;1.10;;;;;;;18.56;30.93;100346.66;106600;1257;65611;-76
2023/06/02 11:52:56;;;;;;;5.60;1.20;;;;;;;18.13;32.03;100349.58;106261;1257;72747;-71
2023/06/02 11:55:44;;;;;;;5.00;1.00;;;;;;;17.54;32.91;100341.87;106595;1257;59916;-72
2023/06/02 11:58:44;;;;;;;5.50;1.20;;;;;;;17.23;32.91;100350.51;105969;1258;59285;-71
2023/06/02 12:01:33;;;;;;;5.90;1.10;;;;;;;16.90;32.34;100352.17;106029;1254;70939;-72
2023/06/02 12:04:22;;;;;;;5.70;0.90;;;;;;;16.80;33.30;100353.14;105883;1259;66229;-73
2023/06/02 12:07:10;;;;;;;5.60;1.40;;;;;;;16.82;34.87;100351.70;105742;1261;72748;-73
2023/06/02 12:09:58;;;;;;;5.70;1.20;;;;;;;16.89;35.17;100347.45;105887;1260;58851;-74
2023/06/02 12:12:47;;;;;;;4.60;1.00;;;;;;;16.90;35.67;100345.38;106397;1256;59285;-74
2023/06/02 12:15:36;;;;;;;6.40;1.20;;;;;;;16.70;35.87;100349.50;106182;1257;73157;-73
2023/06/02 12:18:30;;;;;;;6.70;1.10;;;;;;;16.64;36.39;100355.42;105924;1260;67915;-72
2023/06/02 12:21:29;;;;;;;4.40;1.20;;;;;;;16.85;36.39;100355.34;105993;1259;71624;-73
2023/06/02 12:24:38;;;;;;;5.70;1.30;;;;;;;16.90;36.65;100347.55;106153;1259;59500;-72
2023/06/02 12:27:26;;;;;;;5.70;1.20;;;;;;;16.83;36.60;100348.40;106566;1254;60393;-74
2023/06/02 12:30:16;;;;;;;5.80;1.20;;;;;;;16.66;36.80;100346.87;106384;1260;72050;-71
2023/06/02 12:33:09;;;;;;;5.30;1.20;;;;;;;16.40;36.61;100362.13;106005;1254;66685;-72
2023/06/02 12:35:57;;;;;;;5.00;1.20;;;;;;;16.41;37.05;100361.98;105921;1257;70819;-72
2023/06/02 12:38:45;;;;;;;5.50;1.30;;;;;;;16.63;37.16;100362.36;105892;1260;59212;-71
2023/06/02 12:41:33;;;;;;;8.20;1.30;;;;;;;16.71;36.73;100364.11;105923;1257;59373;-74
2023/06/02 12:44:22;;;;;;;5.20;1.20;;;;;;;16.83;36.36;100358.66;105832;1256;72155;-71
2023/06/02 12:47:13;;;;;;;4.90;1.10;;;;;;;16.78;35.24;100363.21;105738;1266;66304;-75
2023/06/02 12:50:05;;;;;;;5.40;1.30;;;;;;;16.46;35.84;100368.29;106009;1254;74023;-73
2023/06/02 12:52:53;;;;;;;6.30;1.20;;;;;;;16.20;36.31;100369.81;105737;1260;59234;-73
2023/06/02 12:55:41;;;;;;;7.30;1.20;;;;;;;15.90;36.06;100374.92;105850;1255;60441;-71
2023/06/02 12:58:29;;;;;;;8.80;1.30;;;;;;;15.61;36.07;100378.23;105943;1260;72020;-70
2023/06/02 13:01:22;;;;;;;6.90;1.30;;;;;;;15.56;36.47;100372.59;105817;1258;69498;-71
2023/06/02 13:04:11;;;;;;;6.70;1.30;;;;;;;15.49;35.76;100374.15;106081;1259;73956;-70
2023/06/02 13:07:01;;;;;;;5.30;1.30;;;;;;;15.45;35.92;100374.49;105839;1253;59841;-73
2023/06/02 13:09:50;;;;;;;4.50;1.10;;;;;;;15.27;36.36;100381.45;105788;1255;59213;-71
2023/06/02 13:12:39;;;;;;;5.10;1.10;;;;;;;15.14;36.93;100389.45;105753;1256;72275;-70